createdAt,value
2022-11-22T00:02:17.767Z,85.40
2022-11-22T00:09:00.414Z,85.66
2022-11-22T00:11:32.733Z,85.63
2022-11-22T00:14:05.268Z,85.79
2022-11-22T00:16:38.526Z,85.64
2022-11-22T00:19:11.832Z,85.54
2022-11-22T00:21:50.361Z,85.60
2022-11-22T00:24:22.945Z,85.64
2022-11-22T00:31:46.449Z,85.71
2022-11-22T00:34:18.717Z,85.99
2022-11-22T00:36:51.272Z,86.17
2022-11-22T00:39:32.644Z,86.07
2022-11-22T00:42:57.905Z,86.13
2022-11-22T00:45:30.210Z,86.15
2022-11-22T00:48:02.343Z,86.21
2022-11-22T00:51:28.972Z,86.31
2022-11-22T00:59:16.037Z,86.92
2022-11-22T01:01:48.265Z,87.26
2022-11-22T01:04:27.384Z,87.22
2022-11-22T01:07:00.139Z,87.42
2022-11-22T01:14:26.638Z,87.78
2022-11-22T01:21:31.436Z,88.20
2022-11-22T01:24:03.960Z,88.17
2022-11-22T01:26:42.595Z,88.37
2022-11-22T01:29:15.445Z,88.56
2022-11-22T01:31:54.484Z,88.67
2022-11-22T01:34:27.207Z,88.60
2022-11-22T01:37:48.093Z,89.04
2022-11-22T01:45:48.143Z,89.22
2022-11-22T01:52:23.589Z,89.61
2022-11-22T01:55:45.768Z,89.45
2022-11-22T02:07:19.138Z,89.44
2022-11-22T02:10:12.775Z,89.35
2022-11-22T02:14:38.892Z,89.43
2022-11-22T02:17:18.716Z,89.64
2022-11-22T02:24:18.248Z,89.40
2022-11-22T02:26:50.635Z,89.72
2022-11-22T02:29:49.979Z,89.68
2022-11-22T02:32:22.527Z,89.61
2022-11-22T02:34:55.036Z,89.48
2022-11-22T02:41:29.572Z,89.60
2022-11-22T02:44:35.929Z,89.78
2022-11-22T02:51:35.141Z,90.16
2022-11-22T02:55:13.245Z,90.40
2022-11-22T02:57:45.556Z,90.41
2022-11-22T03:00:27.489Z,90.59
2022-11-22T03:03:22.760Z,90.69
2022-11-22T03:10:53.132Z,90.75
2022-11-22T03:22:17.080Z,91.18
2022-11-22T03:25:40.479Z,91.16
2022-11-22T03:37:10.016Z,91.74
2022-11-22T03:39:42.508Z,91.87
2022-11-22T03:42:42.327Z,91.84
2022-11-22T03:46:48.044Z,91.83
2022-11-22T03:53:36.548Z,91.90
2022-11-22T03:56:09.366Z,91.95
2022-11-22T03:58:47.716Z,92.12
2022-11-22T04:10:53.302Z,92.17
2022-11-22T04:21:42.692Z,92.36
2022-11-22T04:36:27.994Z,92.36
2022-11-22T04:39:06.769Z,92.29
2022-11-22T04:41:39.330Z,92.31
2022-11-22T04:45:02.425Z,92.35
2022-11-22T04:52:29.439Z,92.42
2022-11-22T04:55:08.862Z,92.42
2022-11-22T04:58:31.453Z,92.54
2022-11-22T05:01:22.789Z,92.44
2022-11-22T05:04:36.612Z,92.60
2022-11-22T05:07:09.431Z,92.49
2022-11-22T05:09:42.024Z,92.67
2022-11-22T05:12:14.385Z,92.55
2022-11-22T05:14:48.207Z,92.49
2022-11-22T05:18:24.707Z,92.32
2022-11-22T05:21:00.805Z,92.31
2022-11-22T05:23:57.208Z,92.15
2022-11-22T05:30:31.158Z,92.27
2022-11-22T05:33:03.572Z,92.15
2022-11-22T05:41:09.253Z,92.18
2022-11-22T05:43:42.392Z,92.40
2022-11-22T05:47:17.664Z,91.95
2022-11-22T05:54:31.235Z,92.10
2022-11-22T05:57:19.693Z,92.02
2022-11-22T06:05:44.023Z,92.20
2022-11-22T06:08:16.364Z,92.17
2022-11-22T06:11:42.624Z,92.22
2022-11-22T06:18:24.410Z,92.53
2022-11-22T06:25:12.788Z,92.62
2022-11-22T06:28:36.491Z,92.83
2022-11-22T06:31:15.337Z,92.84
2022-11-22T06:33:56.238Z,92.66
2022-11-22T06:42:08.621Z,92.80
2022-11-22T06:44:47.741Z,92.71
2022-11-22T06:47:20.261Z,92.87
2022-11-22T06:49:52.712Z,92.65
2022-11-22T06:56:46.585Z,92.73
2022-11-22T06:59:18.924Z,92.77
2022-11-22T07:06:22.807Z,92.87
2022-11-22T07:09:02.660Z,92.99
2022-11-22T07:11:36.471Z,92.82
2022-11-22T07:14:14.796Z,92.80
2022-11-22T07:16:47.105Z,92.86
2022-11-22T07:19:25.865Z,93.09
2022-11-22T07:21:59.080Z,92.95
2022-11-22T07:25:18.519Z,92.98
2022-11-22T07:27:52.868Z,93.10
2022-11-22T07:30:48.958Z,93.36
2022-11-22T07:38:15.069Z,93.42
2022-11-22T07:45:20.328Z,93.49
2022-11-22T07:47:52.846Z,93.54
2022-11-22T07:50:32.330Z,93.69
2022-11-22T07:53:04.716Z,93.77
2022-11-22T07:56:05.337Z,93.61
2022-11-22T08:06:53.958Z,93.82
2022-11-22T08:09:28.331Z,93.75
2022-11-22T08:12:59.801Z,94.46
2022-11-22T08:15:45.655Z,94.83
2022-11-22T08:18:18.717Z,93.52
2022-11-22T08:25:24.359Z,96.05
2022-11-22T08:27:57.610Z,97.03
2022-11-22T08:35:01.972Z,92.18
2022-11-22T08:37:36.261Z,90.69
2022-11-22T08:41:11.690Z,89.21
2022-11-22T08:43:55.183Z,87.24
2022-11-22T08:46:27.509Z,84.53
2022-11-22T08:49:32.375Z,81.39
2022-11-22T08:56:45.433Z,76.51
2022-11-22T09:00:33.210Z,75.16
2022-11-22T09:03:05.879Z,72.06
2022-11-22T09:09:43.543Z,67.64
2022-11-22T09:13:02.474Z,66.24
2022-11-22T09:15:35.528Z,64.02
2022-11-22T09:18:07.973Z,62.68
2022-11-22T09:20:40.614Z,61.22
2022-11-22T09:23:18.980Z,59.53
2022-11-22T09:26:57.092Z,58.38
2022-11-22T09:29:36.429Z,55.80
2022-11-22T09:36:34.468Z,55.29
2022-11-22T10:04:06.516Z,43.06
2022-11-22T10:19:35.042Z,39.32
2022-11-22T10:22:40.525Z,38.75
2022-11-22T10:34:38.135Z,37.31
2022-11-22T10:37:26.038Z,37.73
2022-11-22T10:44:36.286Z,37.29
2022-11-22T10:56:17.029Z,38.01
2022-11-22T11:09:36.381Z,38.05
2022-11-22T11:11:41.236Z,37.30
2022-11-22T11:16:01.608Z,37.64
2022-11-22T11:19:22.545Z,37.60
2022-11-22T11:35:43.945Z,39.88
2022-11-22T11:38:37.325Z,39.80
2022-11-22T11:41:25.327Z,40.11
2022-11-22T11:43:58.656Z,40.38
2022-11-22T11:46:44.992Z,40.79
2022-11-22T11:49:19.170Z,41.05
2022-11-22T11:51:55.424Z,41.03
2022-11-22T11:54:35.502Z,41.14
2022-11-22T11:57:12.100Z,41.55
2022-11-22T11:59:49.568Z,41.29
2022-11-22T12:02:24.474Z,41.35
2022-11-22T12:05:00.660Z,41.41
2022-11-22T12:07:43.822Z,41.77
2022-11-22T12:10:37.243Z,41.98
2022-11-22T12:13:16.782Z,41.74
2022-11-22T12:15:58.008Z,41.65
2022-11-22T12:18:42.831Z,41.97
2022-11-22T12:21:29.971Z,42.26
2022-11-22T12:27:01.642Z,42.08
2022-11-22T12:29:38.534Z,42.06
2022-11-22T12:32:18.277Z,41.99
2022-11-22T12:34:56.741Z,41.63
2022-11-22T12:37:35.642Z,42.04
2022-11-22T12:40:15.838Z,41.88
2022-11-22T12:42:52.497Z,41.38
2022-11-22T12:45:29.955Z,41.29
2022-11-22T12:48:06.712Z,41.78
2022-11-22T12:48:23.137Z,42.74
2022-11-22T12:50:43.045Z,42.02
2022-11-22T12:53:17.624Z,42.23
2022-11-22T12:55:59.054Z,42.71
2022-11-22T12:58:39.152Z,43.10
2022-11-22T13:01:15.262Z,43.47
2022-11-22T13:03:54.959Z,43.71
2022-11-22T13:06:31.237Z,44.33
2022-11-22T13:09:09.301Z,44.35
2022-11-22T13:11:46.562Z,44.97
2022-11-22T13:14:23.266Z,45.18
2022-11-22T13:16:57.367Z,45.47
2022-11-22T13:19:32.412Z,45.50
2022-11-22T13:22:16.648Z,45.84
2022-11-22T13:25:04.477Z,46.08
2022-11-22T13:27:42.102Z,46.33
2022-11-22T13:30:21.725Z,46.66
2022-11-22T13:32:55.979Z,46.88
2022-11-22T13:35:33.717Z,47.35
2022-11-22T13:38:13.697Z,47.64
2022-11-22T13:40:50.612Z,47.67
2022-11-22T13:43:53.425Z,48.02
2022-11-22T13:46:54.419Z,48.50
2022-11-22T13:49:38.929Z,49.03
2022-11-22T13:52:47.159Z,49.05
2022-11-22T13:55:42.437Z,49.50
2022-11-22T13:58:50.789Z,49.85
2022-11-22T14:02:19.578Z,50.21
2022-11-22T14:04:56.385Z,50.13
2022-11-22T14:07:43.580Z,50.34
2022-11-22T14:10:32.657Z,50.83
2022-11-22T14:13:32.811Z,51.06
2022-11-22T14:16:36.052Z,51.48
2022-11-22T14:19:21.544Z,51.78
2022-11-22T14:22:18.723Z,51.86
2022-11-22T14:25:04.632Z,52.21
2022-11-22T14:27:50.199Z,52.77
2022-11-22T14:30:23.420Z,52.88
2022-11-22T14:33:02.810Z,52.97
2022-11-22T14:35:39.258Z,53.28
2022-11-22T14:38:40.872Z,53.61
2022-11-22T14:41:44.031Z,53.92
2022-11-22T14:44:20.337Z,54.80
2022-11-22T14:46:57.522Z,54.82
2022-11-22T14:49:43.570Z,55.03
2022-11-22T14:52:23.488Z,55.32
2022-11-22T14:54:59.955Z,55.89
2022-11-22T14:57:35.564Z,56.08
2022-11-22T15:00:19.027Z,56.81
2022-11-22T15:03:23.827Z,58.10
2022-11-22T15:09:18.208Z,58.10
2022-11-22T15:09:46.860Z,57.76
2022-11-22T15:12:36.768Z,57.76
2022-11-22T15:57:36.763Z,62.72
2022-11-22T16:00:22.582Z,62.87
2022-11-22T16:03:01.634Z,62.63
2022-11-22T16:06:05.900Z,63.59
2022-11-22T16:08:32.590Z,63.40
2022-11-22T16:11:05.892Z,63.22
2022-11-22T16:13:40.048Z,63.57
2022-11-22T16:16:27.123Z,63.71
2022-11-22T16:19:23.788Z,64.04
2022-11-22T16:22:00.545Z,63.99
2022-11-22T16:24:33.429Z,64.20
2022-11-22T16:27:15.937Z,64.50
2022-11-22T16:29:54.764Z,64.82
2022-11-22T16:32:29.657Z,65.45
2022-11-22T16:35:27.495Z,65.44
2022-11-22T16:37:53.811Z,65.06
2022-11-22T16:40:26.072Z,65.35
2022-11-22T16:42:58.310Z,66.04
2022-11-22T16:45:31.455Z,65.89
2022-11-22T16:48:39.031Z,65.75
2022-11-22T16:55:31.475Z,66.41
2022-11-22T16:59:00.583Z,66.55
2022-11-22T17:14:33.564Z,67.52
2022-11-22T17:21:01.550Z,68.57
2022-11-22T17:23:36.684Z,68.33
2022-11-22T17:31:40.785Z,68.61
2022-11-22T17:34:13.094Z,68.70
2022-11-22T17:36:53.222Z,68.73
2022-11-22T17:39:25.443Z,68.96
2022-11-22T17:42:06.940Z,68.84
2022-11-22T17:44:39.672Z,68.92
2022-11-22T17:47:18.323Z,68.95
2022-11-22T17:49:50.597Z,69.34
2022-11-22T17:52:29.591Z,69.47
2022-11-22T17:55:06.217Z,69.59
2022-11-22T17:58:35.741Z,69.66
2022-11-22T18:01:10.265Z,69.79
2022-11-22T18:04:31.624Z,69.77
2022-11-22T18:07:04.546Z,70.39
2022-11-22T18:09:43.305Z,70.33
2022-11-22T18:17:07.394Z,70.54
2022-11-22T18:19:46.353Z,70.58
2022-11-22T18:22:20.178Z,70.66
2022-11-22T18:24:59.536Z,70.89
2022-11-22T18:27:31.719Z,71.32
2022-11-22T18:30:13.382Z,71.17
2022-11-22T18:51:23.701Z,73.08
2022-11-22T19:01:37.579Z,73.21
2022-11-22T19:04:10.832Z,73.27
2022-11-22T19:06:52.683Z,73.12
2022-11-22T19:09:29.026Z,73.45
2022-11-22T19:13:51.221Z,73.94
2022-11-22T19:21:38.220Z,74.17
2022-11-22T19:24:10.984Z,74.01
2022-11-22T19:26:49.414Z,74.08
2022-11-22T19:29:22.257Z,74.16
2022-11-22T19:32:01.666Z,74.39
2022-11-22T19:34:34.130Z,74.35
2022-11-22T19:37:12.914Z,74.15
2022-11-22T19:39:45.221Z,74.99
2022-11-22T19:46:11.605Z,74.65
2022-11-22T19:48:53.444Z,74.73
2022-11-22T19:52:15.533Z,74.96
2022-11-22T20:02:25.821Z,75.15
2022-11-22T20:04:58.628Z,75.33
2022-11-22T20:07:38.310Z,75.30
2022-11-22T20:10:11.509Z,75.27
2022-11-22T20:12:51.659Z,75.39
2022-11-22T20:20:16.015Z,75.47
2022-11-22T20:23:57.186Z,75.33
2022-11-22T20:26:36.267Z,75.44
2022-11-22T20:33:06.477Z,75.27
2022-11-22T20:35:39.811Z,75.16
2022-11-22T20:38:13.389Z,74.86
2022-11-22T20:45:08.693Z,74.77
2022-11-22T20:51:52.723Z,74.73
2022-11-22T20:54:24.984Z,74.86
2022-11-22T20:56:58.147Z,74.86
2022-11-22T20:59:30.420Z,74.80
2022-11-22T21:06:06.218Z,74.63
2022-11-22T21:08:38.438Z,74.65
2022-11-22T21:11:18.189Z,74.58
2022-11-22T21:13:51.263Z,74.57
2022-11-22T21:16:30.943Z,74.61
2022-11-22T21:19:05.214Z,74.96
2022-11-22T21:22:31.545Z,75.38
2022-11-22T21:25:53.442Z,75.76
2022-11-22T21:32:35.364Z,75.92
2022-11-22T21:39:37.221Z,76.43
2022-11-22T21:42:09.512Z,76.69
2022-11-22T21:44:48.081Z,76.66
2022-11-22T21:52:15.281Z,76.99
2022-11-22T21:54:47.692Z,77.18
2022-11-22T22:06:12.369Z,77.82
2022-11-22T22:09:43.977Z,77.79
2022-11-22T22:12:23.364Z,78.00
2022-11-22T22:15:12.400Z,77.74
2022-11-22T22:18:35.504Z,77.81
2022-11-22T22:21:58.502Z,77.67
2022-11-22T22:29:03.844Z,77.65
2022-11-22T22:36:26.898Z,78.17
2022-11-22T22:44:19.150Z,77.91
2022-11-22T22:47:00.677Z,78.02
2022-11-22T22:50:51.290Z,77.98
2022-11-22T22:53:31.124Z,77.98
2022-11-22T23:05:43.821Z,78.94
2022-11-22T23:08:22.865Z,79.15
2022-11-22T23:15:33.183Z,79.41
2022-11-22T23:22:28.087Z,79.89
2022-11-22T23:25:00.279Z,80.21
2022-11-22T23:31:42.059Z,80.38
2022-11-22T23:34:15.276Z,80.44
2022-11-22T23:36:54.064Z,80.86
2022-11-22T23:39:27.575Z,80.94
2022-11-22T23:42:00.317Z,80.99
2022-11-22T23:44:59.890Z,80.75
2022-11-22T23:52:38.436Z,81.05
2022-11-22T23:55:25.585Z,81.01
2022-11-22T23:57:59.539Z,81.34
